sensor_id;sensor_type;location;lat;lon;timestamp;temperature;humidity
14995;DHT22;7593;49.006;8.372;2023-06-22T00:01:12;22.70;99.90
14995;DHT22;7593;49.006;8.372;2023-06-22T00:03:39;22.80;99.90
14995;DHT22;7593;49.006;8.372;2023-06-22T00:06:06;22.70;99.90
14995;DHT22;7593;49.006;8.372;2023-06-22T00:08:32;22.70;99.90
14995;DHT22;7593;49.006;8.372;2023-06-22T00:11:00;22.70;99.90
14995;DHT22;7593;49.006;8.372;2023-06-22T00:13:27;22.70;99.90
14995;DHT22;7593;49.006;8.372;2023-06-22T00:15:54;22.70;99.90
14995;DHT22;7593;49.006;8.372;2023-06-22T00:18:21;22.70;99.90
14995;DHT22;7593;49.006;8.372;2023-06-22T00:20:47;22.70;99.90
14995;DHT22;7593;49.006;8.372;2023-06-22T00:23:14;22.60;99.90
14995;DHT22;7593;49.006;8.372;2023-06-22T00:25:42;22.60;99.90
14995;DHT22;7593;49.006;8.372;2023-06-22T00:28:11;22.50;99.90
14995;DHT22;7593;49.006;8.372;2023-06-22T00:30:38;22.50;99.90
14995;DHT22;7593;49.006;8.372;2023-06-22T00:33:04;22.40;99.90
14995;DHT22;7593;49.006;8.372;2023-06-22T00:35:33;22.50;99.90
14995;DHT22;7593;49.006;8.372;2023-06-22T00:38:00;22.50;99.90
14995;DHT22;7593;49.006;8.372;2023-06-22T00:40:29;22.20;99.90
14995;DHT22;7593;49.006;8.372;2023-06-22T00:42:57;21.80;99.90
14995;DHT22;7593;49.006;8.372;2023-06-22T00:45:26;21.40;99.90
14995;DHT22;7593;49.006;8.372;2023-06-22T00:47:54;21.10;99.90
14995;DHT22;7593;49.006;8.372;2023-06-22T00:50:24;20.90;99.90
14995;DHT22;7593;49.006;8.372;2023-06-22T00:52:53;20.60;99.90
14995;DHT22;7593;49.006;8.372;2023-06-22T00:55:22;20.50;99.90
14995;DHT22;7593;49.006;8.372;2023-06-22T00:57:49;20.40;99.90
14995;DHT22;7593;49.006;8.372;2023-06-22T01:00:16;20.40;99.90
14995;DHT22;7593;49.006;8.372;2023-06-22T01:02:46;20.30;99.90
14995;DHT22;7593;49.006;8.372;2023-06-22T01:05:17;20.20;99.90
14995;DHT22;7593;49.006;8.372;2023-06-22T01:07:54;20.20;99.90
14995;DHT22;7593;49.006;8.372;2023-06-22T01:10:27;20.20;99.90
14995;DHT22;7593;49.006;8.372;2023-06-22T01:12:58;20.20;99.90
14995;DHT22;7593;49.006;8.372;2023-06-22T01:15:30;20.10;99.90
14995;DHT22;7593;49.006;8.372;2023-06-22T01:17:59;20.10;99.90
14995;DHT22;7593;49.006;8.372;2023-06-22T01:20:28;20.10;99.90
14995;DHT22;7593;49.006;8.372;2023-06-22T01:23:05;20.10;99.90
14995;DHT22;7593;49.006;8.372;2023-06-22T01:25:46;20.10;99.90
14995;DHT22;7593;49.006;8.372;2023-06-22T01:28:33;20.10;99.90
14995;DHT22;7593;49.006;8.372;2023-06-22T01:31:01;20.10;99.90
14995;DHT22;7593;49.006;8.372;2023-06-22T01:33:33;20.00;99.90
14995;DHT22;7593;49.006;8.372;2023-06-22T01:36:02;20.00;99.90
14995;DHT22;7593;49.006;8.372;2023-06-22T01:38:29;20.00;99.90
14995;DHT22;7593;49.006;8.372;2023-06-22T01:40:57;20.00;99.90
14995;DHT22;7593;49.006;8.372;2023-06-22T01:43:25;20.00;99.90
14995;DHT22;7593;49.006;8.372;2023-06-22T01:45:54;19.90;99.90
14995;DHT22;7593;49.006;8.372;2023-06-22T01:48:21;19.90;99.90
14995;DHT22;7593;49.006;8.372;2023-06-22T01:50:49;19.90;99.90
14995;DHT22;7593;49.006;8.372;2023-06-22T01:53:15;19.90;99.90
14995;DHT22;7593;49.006;8.372;2023-06-22T01:55:42;19.80;99.90
14995;DHT22;7593;49.006;8.372;2023-06-22T01:58:09;19.80;99.90
14995;DHT22;7593;49.006;8.372;2023-06-22T02:00:37;19.80;99.90
14995;DHT22;7593;49.006;8.372;2023-06-22T02:03:11;19.80;99.90
14995;DHT22;7593;49.006;8.372;2023-06-22T02:05:47;19.80;99.90
14995;DHT22;7593;49.006;8.372;2023-06-22T02:08:19;19.80;99.90
14995;DHT22;7593;49.006;8.372;2023-06-22T02:10:46;19.80;99.90
14995;DHT22;7593;49.006;8.372;2023-06-22T02:13:15;19.80;99.90
14995;DHT22;7593;49.006;8.372;2023-06-22T02:15:43;19.80;99.90
14995;DHT22;7593;49.006;8.372;2023-06-22T02:18:11;19.80;99.90
14995;DHT22;7593;49.006;8.372;2023-06-22T02:20:39;19.80;99.90
14995;DHT22;7593;49.006;8.372;2023-06-22T02:23:07;19.70;99.90
14995;DHT22;7593;49.006;8.372;2023-06-22T02:25:34;19.70;99.90
14995;DHT22;7593;49.006;8.372;2023-06-22T02:28:01;19.70;99.90
14995;DHT22;7593;49.006;8.372;2023-06-22T02:30:28;19.70;99.90
14995;DHT22;7593;49.006;8.372;2023-06-22T02:32:54;19.70;99.90
14995;DHT22;7593;49.006;8.372;2023-06-22T02:35:27;19.70;99.90
14995;DHT22;7593;49.006;8.372;2023-06-22T02:37:56;19.60;99.90
14995;DHT22;7593;49.006;8.372;2023-06-22T02:40:23;19.60;99.90
14995;DHT22;7593;49.006;8.372;2023-06-22T02:42:50;19.60;99.90
14995;DHT22;7593;49.006;8.372;2023-06-22T02:45:17;19.70;99.90
14995;DHT22;7593;49.006;8.372;2023-06-22T02:47:44;19.60;99.90
14995;DHT22;7593;49.006;8.372;2023-06-22T02:50:13;19.60;99.90
14995;DHT22;7593;49.006;8.372;2023-06-22T02:52:41;19.60;99.90
14995;DHT22;7593;49.006;8.372;2023-06-22T02:55:08;19.60;99.90
14995;DHT22;7593;49.006;8.372;2023-06-22T02:57:35;19.60;99.90
14995;DHT22;7593;49.006;8.372;2023-06-22T03:00:04;19.60;99.90
14995;DHT22;7593;49.006;8.372;2023-06-22T03:02:42;19.70;99.90
14995;DHT22;7593;49.006;8.372;2023-06-22T03:05:09;19.70;99.90
14995;DHT22;7593;49.006;8.372;2023-06-22T03:07:40;19.70;99.90
14995;DHT22;7593;49.006;8.372;2023-06-22T03:10:09;19.70;99.90
14995;DHT22;7593;49.006;8.372;2023-06-22T03:12:36;19.70;99.90
14995;DHT22;7593;49.006;8.372;2023-06-22T03:15:04;19.70;99.90
14995;DHT22;7593;49.006;8.372;2023-06-22T03:17:31;19.70;99.90
14995;DHT22;7593;49.006;8.372;2023-06-22T03:19:58;19.70;99.90
14995;DHT22;7593;49.006;8.372;2023-06-22T03:22:24;19.70;99.90
14995;DHT22;7593;49.006;8.372;2023-06-22T03:24:53;19.70;99.90
14995;DHT22;7593;49.006;8.372;2023-06-22T03:27:19;19.70;99.90
14995;DHT22;7593;49.006;8.372;2023-06-22T03:29:46;19.70;99.90
14995;DHT22;7593;49.006;8.372;2023-06-22T03:32:13;19.70;99.90
14995;DHT22;7593;49.006;8.372;2023-06-22T03:34:40;19.70;99.90
14995;DHT22;7593;49.006;8.372;2023-06-22T03:37:11;19.60;99.90
14995;DHT22;7593;49.006;8.372;2023-06-22T03:39:39;19.60;99.90
14995;DHT22;7593;49.006;8.372;2023-06-22T03:42:07;19.60;99.90
14995;DHT22;7593;49.006;8.372;2023-06-22T03:44:34;19.60;99.90
14995;DHT22;7593;49.006;8.372;2023-06-22T03:47:02;19.60;99.90
14995;DHT22;7593;49.006;8.372;2023-06-22T03:49:28;19.60;99.90
14995;DHT22;7593;49.006;8.372;2023-06-22T03:51:55;19.60;99.90
14995;DHT22;7593;49.006;8.372;2023-06-22T03:54:22;19.70;99.90
14995;DHT22;7593;49.006;8.372;2023-06-22T03:56:48;19.60;99.90
14995;DHT22;7593;49.006;8.372;2023-06-22T03:59:16;19.70;99.90
14995;DHT22;7593;49.006;8.372;2023-06-22T04:01:43;19.70;99.90
14995;DHT22;7593;49.006;8.372;2023-06-22T04:04:10;19.70;99.90
14995;DHT22;7593;49.006;8.372;2023-06-22T04:06:36;19.70;99.90
14995;DHT22;7593;49.006;8.372;2023-06-22T04:09:03;19.70;99.90
14995;DHT22;7593;49.006;8.372;2023-06-22T04:11:30;19.80;99.90
14995;DHT22;7593;49.006;8.372;2023-06-22T04:13:57;19.80;99.90
14995;DHT22;7593;49.006;8.372;2023-06-22T04:16:25;19.80;99.90
14995;DHT22;7593;49.006;8.372;2023-06-22T04:18:51;19.80;99.90
14995;DHT22;7593;49.006;8.372;2023-06-22T04:21:18;19.80;99.90
14995;DHT22;7593;49.006;8.372;2023-06-22T04:23:46;19.80;99.90
14995;DHT22;7593;49.006;8.372;2023-06-22T04:26:13;19.90;99.90
14995;DHT22;7593;49.006;8.372;2023-06-22T04:28:40;19.90;99.90
14995;DHT22;7593;49.006;8.372;2023-06-22T04:31:07;19.90;99.90
14995;DHT22;7593;49.006;8.372;2023-06-22T04:33:35;20.00;99.90
14995;DHT22;7593;49.006;8.372;2023-06-22T04:36:03;20.00;99.90
14995;DHT22;7593;49.006;8.372;2023-06-22T04:38:30;20.00;99.90
14995;DHT22;7593;49.006;8.372;2023-06-22T04:40:58;20.00;99.90
14995;DHT22;7593;49.006;8.372;2023-06-22T04:43:26;20.10;99.90
14995;DHT22;7593;49.006;8.372;2023-06-22T04:45:55;20.00;99.90
14995;DHT22;7593;49.006;8.372;2023-06-22T04:48:28;20.00;99.90
14995;DHT22;7593;49.006;8.372;2023-06-22T04:50:59;20.10;99.90
14995;DHT22;7593;49.006;8.372;2023-06-22T04:53:29;20.10;99.90
14995;DHT22;7593;49.006;8.372;2023-06-22T04:55:55;20.10;99.90
14995;DHT22;7593;49.006;8.372;2023-06-22T04:58:22;20.20;99.90
14995;DHT22;7593;49.006;8.372;2023-06-22T05:00:52;20.20;99.90
14995;DHT22;7593;49.006;8.372;2023-06-22T05:03:22;20.20;99.90
14995;DHT22;7593;49.006;8.372;2023-06-22T05:05:51;20.30;99.90
14995;DHT22;7593;49.006;8.372;2023-06-22T05:08:19;20.30;99.90
14995;DHT22;7593;49.006;8.372;2023-06-22T05:10:46;20.30;99.90
14995;DHT22;7593;49.006;8.372;2023-06-22T05:13:13;20.40;99.90
14995;DHT22;7593;49.006;8.372;2023-06-22T05:15:40;20.40;99.90
14995;DHT22;7593;49.006;8.372;2023-06-22T05:18:06;20.50;99.90
14995;DHT22;7593;49.006;8.372;2023-06-22T05:20:33;20.60;99.90
14995;DHT22;7593;49.006;8.372;2023-06-22T05:23:01;20.70;99.90
14995;DHT22;7593;49.006;8.372;2023-06-22T05:25:29;20.80;99.90
14995;DHT22;7593;49.006;8.372;2023-06-22T05:27:58;20.80;99.90
14995;DHT22;7593;49.006;8.372;2023-06-22T05:30:24;20.90;99.90
14995;DHT22;7593;49.006;8.372;2023-06-22T05:32:51;21.00;99.90
14995;DHT22;7593;49.006;8.372;2023-06-22T05:35:18;21.10;99.90
14995;DHT22;7593;49.006;8.372;2023-06-22T05:37:45;21.20;99.90
14995;DHT22;7593;49.006;8.372;2023-06-22T05:40:12;21.30;99.90
14995;DHT22;7593;49.006;8.372;2023-06-22T05:42:40;21.40;99.90
14995;DHT22;7593;49.006;8.372;2023-06-22T05:45:07;21.50;99.90
14995;DHT22;7593;49.006;8.372;2023-06-22T05:47:34;21.50;99.90
14995;DHT22;7593;49.006;8.372;2023-06-22T05:50:01;21.60;99.90
14995;DHT22;7593;49.006;8.372;2023-06-22T05:52:32;21.70;99.90
14995;DHT22;7593;49.006;8.372;2023-06-22T05:54:58;21.80;99.90
14995;DHT22;7593;49.006;8.372;2023-06-22T05:57:25;21.80;99.90
14995;DHT22;7593;49.006;8.372;2023-06-22T05:59:53;21.90;99.90
14995;DHT22;7593;49.006;8.372;2023-06-22T06:02:20;21.90;99.90
14995;DHT22;7593;49.006;8.372;2023-06-22T06:04:47;22.00;99.90
14995;DHT22;7593;49.006;8.372;2023-06-22T06:07:13;22.00;99.90
14995;DHT22;7593;49.006;8.372;2023-06-22T06:09:40;22.00;99.90
14995;DHT22;7593;49.006;8.372;2023-06-22T06:12:07;22.00;99.90
14995;DHT22;7593;49.006;8.372;2023-06-22T06:14:34;22.00;99.90
14995;DHT22;7593;49.006;8.372;2023-06-22T06:17:03;22.00;99.90
14995;DHT22;7593;49.006;8.372;2023-06-22T06:19:29;22.10;99.90
14995;DHT22;7593;49.006;8.372;2023-06-22T06:21:56;22.10;99.90
14995;DHT22;7593;49.006;8.372;2023-06-22T06:24:23;22.20;99.90
14995;DHT22;7593;49.006;8.372;2023-06-22T06:26:50;22.20;99.90
14995;DHT22;7593;49.006;8.372;2023-06-22T06:29:16;22.40;99.90
14995;DHT22;7593;49.006;8.372;2023-06-22T06:31:43;22.50;99.90
14995;DHT22;7593;49.006;8.372;2023-06-22T06:34:11;22.70;99.90
14995;DHT22;7593;49.006;8.372;2023-06-22T06:36:38;22.90;99.90
14995;DHT22;7593;49.006;8.372;2023-06-22T06:39:05;23.20;99.90
14995;DHT22;7593;49.006;8.372;2023-06-22T06:41:32;23.60;99.90
14995;DHT22;7593;49.006;8.372;2023-06-22T06:43:58;24.00;99.90
14995;DHT22;7593;49.006;8.372;2023-06-22T06:46:26;24.40;99.90
14995;DHT22;7593;49.006;8.372;2023-06-22T06:48:52;24.70;99.90
14995;DHT22;7593;49.006;8.372;2023-06-22T06:51:20;24.90;99.90
14995;DHT22;7593;49.006;8.372;2023-06-22T06:53:47;25.10;99.90
14995;DHT22;7593;49.006;8.372;2023-06-22T06:56:14;25.10;99.90
14995;DHT22;7593;49.006;8.372;2023-06-22T06:58:41;25.10;99.90
14995;DHT22;7593;49.006;8.372;2023-06-22T07:01:10;25.20;99.90
14995;DHT22;7593;49.006;8.372;2023-06-22T07:03:37;25.30;99.90
14995;DHT22;7593;49.006;8.372;2023-06-22T07:06:04;25.40;99.90
14995;DHT22;7593;49.006;8.372;2023-06-22T07:08:32;25.50;99.90
14995;DHT22;7593;49.006;8.372;2023-06-22T07:11:00;25.70;99.90
14995;DHT22;7593;49.006;8.372;2023-06-22T07:13:27;25.90;99.90
14995;DHT22;7593;49.006;8.372;2023-06-22T07:15:54;26.10;99.90
14995;DHT22;7593;49.006;8.372;2023-06-22T07:18:20;26.50;99.90
14995;DHT22;7593;49.006;8.372;2023-06-22T07:20:47;26.80;99.90
14995;DHT22;7593;49.006;8.372;2023-06-22T07:23:14;27.00;99.90
14995;DHT22;7593;49.006;8.372;2023-06-22T07:25:42;27.20;99.90
14995;DHT22;7593;49.006;8.372;2023-06-22T07:28:09;27.40;99.90
14995;DHT22;7593;49.006;8.372;2023-06-22T07:30:36;27.60;99.90
14995;DHT22;7593;49.006;8.372;2023-06-22T07:33:03;27.60;99.90
14995;DHT22;7593;49.006;8.372;2023-06-22T07:35:33;27.80;99.90
14995;DHT22;7593;49.006;8.372;2023-06-22T07:38:00;28.00;99.90
14995;DHT22;7593;49.006;8.372;2023-06-22T07:40:27;28.00;99.90
14995;DHT22;7593;49.006;8.372;2023-06-22T07:42:55;28.00;99.90
14995;DHT22;7593;49.006;8.372;2023-06-22T07:45:22;28.00;99.90
14995;DHT22;7593;49.006;8.372;2023-06-22T07:47:49;28.10;99.90
14995;DHT22;7593;49.006;8.372;2023-06-22T07:50:19;28.20;99.90
14995;DHT22;7593;49.006;8.372;2023-06-22T07:52:47;28.20;99.90
14995;DHT22;7593;49.006;8.372;2023-06-22T07:55:20;28.20;99.90
14995;DHT22;7593;49.006;8.372;2023-06-22T07:57:48;28.20;99.90
14995;DHT22;7593;49.006;8.372;2023-06-22T08:00:19;28.30;99.90
14995;DHT22;7593;49.006;8.372;2023-06-22T08:02:46;28.40;99.90
14995;DHT22;7593;49.006;8.372;2023-06-22T08:05:14;28.50;99.90
14995;DHT22;7593;49.006;8.372;2023-06-22T08:07:41;28.80;99.90
14995;DHT22;7593;49.006;8.372;2023-06-22T08:10:10;29.00;99.90
14995;DHT22;7593;49.006;8.372;2023-06-22T08:12:38;29.20;99.90
14995;DHT22;7593;49.006;8.372;2023-06-22T08:15:06;29.40;99.90
14995;DHT22;7593;49.006;8.372;2023-06-22T08:17:36;29.40;99.90
14995;DHT22;7593;49.006;8.372;2023-06-22T08:20:04;29.40;99.90
14995;DHT22;7593;49.006;8.372;2023-06-22T08:22:34;29.50;99.90
14995;DHT22;7593;49.006;8.372;2023-06-22T08:25:02;29.80;99.90
14995;DHT22;7593;49.006;8.372;2023-06-22T08:27:29;29.90;99.90
14995;DHT22;7593;49.006;8.372;2023-06-22T08:29:57;30.00;99.90
14995;DHT22;7593;49.006;8.372;2023-06-22T08:32:24;29.90;99.90
14995;DHT22;7593;49.006;8.372;2023-06-22T08:34:53;29.90;99.90
14995;DHT22;7593;49.006;8.372;2023-06-22T08:37:20;30.10;99.90
14995;DHT22;7593;49.006;8.372;2023-06-22T08:39:49;30.40;99.90
14995;DHT22;7593;49.006;8.372;2023-06-22T08:42:16;30.50;99.90
14995;DHT22;7593;49.006;8.372;2023-06-22T08:44:43;30.50;99.90
14995;DHT22;7593;49.006;8.372;2023-06-22T08:47:09;30.50;99.90
14995;DHT22;7593;49.006;8.372;2023-06-22T08:49:36;30.50;99.90
14995;DHT22;7593;49.006;8.372;2023-06-22T08:52:05;30.60;99.90
14995;DHT22;7593;49.006;8.372;2023-06-22T08:54:33;30.70;99.90
14995;DHT22;7593;49.006;8.372;2023-06-22T08:57:00;30.70;99.90
14995;DHT22;7593;49.006;8.372;2023-06-22T08:59:26;30.70;99.90
14995;DHT22;7593;49.006;8.372;2023-06-22T09:01:54;30.50;99.90
14995;DHT22;7593;49.006;8.372;2023-06-22T09:04:20;30.50;99.90
14995;DHT22;7593;49.006;8.372;2023-06-22T09:06:48;30.70;99.90
14995;DHT22;7593;49.006;8.372;2023-06-22T09:09:16;31.00;99.90
14995;DHT22;7593;49.006;8.372;2023-06-22T09:11:44;31.30;99.90
14995;DHT22;7593;49.006;8.372;2023-06-22T09:14:11;31.40;99.90
14995;DHT22;7593;49.006;8.372;2023-06-22T09:16:38;31.60;99.90
14995;DHT22;7593;49.006;8.372;2023-06-22T09:19:05;31.50;99.90
14995;DHT22;7593;49.006;8.372;2023-06-22T09:21:32;31.60;99.90
14995;DHT22;7593;49.006;8.372;2023-06-22T09:23:59;31.70;99.90
14995;DHT22;7593;49.006;8.372;2023-06-22T09:26:27;31.80;99.90
14995;DHT22;7593;49.006;8.372;2023-06-22T09:28:54;32.10;99.90
14995;DHT22;7593;49.006;8.372;2023-06-22T09:31:20;32.40;99.90
14995;DHT22;7593;49.006;8.372;2023-06-22T09:33:51;32.40;99.90
14995;DHT22;7593;49.006;8.372;2023-06-22T09:36:18;32.40;99.90
14995;DHT22;7593;49.006;8.372;2023-06-22T09:38:45;32.40;99.90
14995;DHT22;7593;49.006;8.372;2023-06-22T09:41:11;32.30;99.90
14995;DHT22;7593;49.006;8.372;2023-06-22T09:43:39;32.40;99.90
14995;DHT22;7593;49.006;8.372;2023-06-22T09:46:06;32.40;99.90
14995;DHT22;7593;49.006;8.372;2023-06-22T09:48:34;32.10;99.90
14995;DHT22;7593;49.006;8.372;2023-06-22T09:51:01;32.10;99.90
14995;DHT22;7593;49.006;8.372;2023-06-22T09:53:28;31.90;99.90
14995;DHT22;7593;49.006;8.372;2023-06-22T09:55:55;31.90;99.90
14995;DHT22;7593;49.006;8.372;2023-06-22T09:58:22;31.90;99.90
14995;DHT22;7593;49.006;8.372;2023-06-22T10:00:50;31.90;99.90
14995;DHT22;7593;49.006;8.372;2023-06-22T10:03:18;31.70;99.90
14995;DHT22;7593;49.006;8.372;2023-06-22T10:05:45;31.50;99.90
14995;DHT22;7593;49.006;8.372;2023-06-22T10:08:12;31.20;99.90
14995;DHT22;7593;49.006;8.372;2023-06-22T10:10:38;31.10;99.90
14995;DHT22;7593;49.006;8.372;2023-06-22T10:13:08;31.10;99.90
14995;DHT22;7593;49.006;8.372;2023-06-22T10:15:36;31.20;99.90
14995;DHT22;7593;49.006;8.372;2023-06-22T10:18:04;31.10;99.90
14995;DHT22;7593;49.006;8.372;2023-06-22T10:20:31;31.00;99.90
14995;DHT22;7593;49.006;8.372;2023-06-22T10:22:58;30.90;99.90
14995;DHT22;7593;49.006;8.372;2023-06-22T10:25:24;30.80;99.90
14995;DHT22;7593;49.006;8.372;2023-06-22T10:27:51;30.70;99.90
14995;DHT22;7593;49.006;8.372;2023-06-22T10:30:18;30.60;99.90
14995;DHT22;7593;49.006;8.372;2023-06-22T10:32:45;30.70;99.90
14995;DHT22;7593;49.006;8.372;2023-06-22T10:35:13;30.70;99.90
14995;DHT22;7593;49.006;8.372;2023-06-22T10:37:42;31.00;99.90
14995;DHT22;7593;49.006;8.372;2023-06-22T10:40:10;31.20;99.90
14995;DHT22;7593;49.006;8.372;2023-06-22T10:42:37;31.40;99.90
14995;DHT22;7593;49.006;8.372;2023-06-22T10:45:05;31.60;99.90
14995;DHT22;7593;49.006;8.372;2023-06-22T10:47:32;31.70;99.90
14995;DHT22;7593;49.006;8.372;2023-06-22T10:49:59;31.60;99.90
14995;DHT22;7593;49.006;8.372;2023-06-22T10:52:27;31.50;99.90
14995;DHT22;7593;49.006;8.372;2023-06-22T10:54:53;31.40;99.90
14995;DHT22;7593;49.006;8.372;2023-06-22T10:57:21;31.30;99.90
14995;DHT22;7593;49.006;8.372;2023-06-22T10:59:48;31.50;99.90
14995;DHT22;7593;49.006;8.372;2023-06-22T11:02:15;31.80;99.90
14995;DHT22;7593;49.006;8.372;2023-06-22T11:04:42;32.20;99.90
14995;DHT22;7593;49.006;8.372;2023-06-22T11:07:09;32.50;99.90
14995;DHT22;7593;49.006;8.372;2023-06-22T11:09:37;32.60;99.90
14995;DHT22;7593;49.006;8.372;2023-06-22T11:12:06;32.80;99.90
14995;DHT22;7593;49.006;8.372;2023-06-22T11:14:33;33.00;99.90
14995;DHT22;7593;49.006;8.372;2023-06-22T11:16:59;33.30;99.90
14995;DHT22;7593;49.006;8.372;2023-06-22T11:19:26;33.40;99.90
14995;DHT22;7593;49.006;8.372;2023-06-22T11:21:53;33.30;99.90
14995;DHT22;7593;49.006;8.372;2023-06-22T11:24:20;33.20;99.90
14995;DHT22;7593;49.006;8.372;2023-06-22T11:26:48;33.20;99.90
14995;DHT22;7593;49.006;8.372;2023-06-22T11:29:15;33.10;99.90
14995;DHT22;7593;49.006;8.372;2023-06-22T11:31:42;32.90;99.90
14995;DHT22;7593;49.006;8.372;2023-06-22T11:34:09;32.80;99.90
14995;DHT22;7593;49.006;8.372;2023-06-22T11:36:36;32.80;99.90
14995;DHT22;7593;49.006;8.372;2023-06-22T11:39:03;32.70;99.90
14995;DHT22;7593;49.006;8.372;2023-06-22T11:41:30;32.70;99.90
14995;DHT22;7593;49.006;8.372;2023-06-22T11:43:58;32.70;99.90
14995;DHT22;7593;49.006;8.372;2023-06-22T11:46:25;32.60;99.90
14995;DHT22;7593;49.006;8.372;2023-06-22T11:48:52;32.40;99.90
14995;DHT22;7593;49.006;8.372;2023-06-22T11:51:18;32.30;99.90
14995;DHT22;7593;49.006;8.372;2023-06-22T11:53:45;32.30;99.90
14995;DHT22;7593;49.006;8.372;2023-06-22T11:56:12;32.20;99.90
14995;DHT22;7593;49.006;8.372;2023-06-22T11:58:38;32.30;99.90
14995;DHT22;7593;49.006;8.372;2023-06-22T12:01:06;32.40;99.90
14995;DHT22;7593;49.006;8.372;2023-06-22T12:03:33;32.90;99.90
14995;DHT22;7593;49.006;8.372;2023-06-22T12:06:00;33.50;99.90
14995;DHT22;7593;49.006;8.372;2023-06-22T12:08:27;33.90;99.90
14995;DHT22;7593;49.006;8.372;2023-06-22T12:10:54;34.00;99.90
14995;DHT22;7593;49.006;8.372;2023-06-22T12:13:20;33.80;99.90
14995;DHT22;7593;49.006;8.372;2023-06-22T12:15:47;34.00;99.90
14995;DHT22;7593;49.006;8.372;2023-06-22T12:18:15;34.20;99.90
14995;DHT22;7593;49.006;8.372;2023-06-22T12:20:42;34.70;99.90
14995;DHT22;7593;49.006;8.372;2023-06-22T12:23:09;35.20;99.70
14995;DHT22;7593;49.006;8.372;2023-06-22T12:25:35;35.40;99.10
14995;DHT22;7593;49.006;8.372;2023-06-22T12:28:02;35.50;99.00
14995;DHT22;7593;49.006;8.372;2023-06-22T12:30:30;35.50;98.30
14995;DHT22;7593;49.006;8.372;2023-06-22T12:32:56;35.40;98.40
14995;DHT22;7593;49.006;8.372;2023-06-22T12:35:24;34.90;98.50
14995;DHT22;7593;49.006;8.372;2023-06-22T12:37:51;34.30;99.40
14995;DHT22;7593;49.006;8.372;2023-06-22T12:40:18;33.70;99.90
14995;DHT22;7593;49.006;8.372;2023-06-22T12:42:45;33.40;99.90
14995;DHT22;7593;49.006;8.372;2023-06-22T12:45:12;33.10;99.90
14995;DHT22;7593;49.006;8.372;2023-06-22T12:47:38;32.90;99.90
14995;DHT22;7593;49.006;8.372;2023-06-22T12:50:06;32.60;99.90
14995;DHT22;7593;49.006;8.372;2023-06-22T12:52:36;32.40;99.90
14995;DHT22;7593;49.006;8.372;2023-06-22T12:55:05;32.20;99.90
14995;DHT22;7593;49.006;8.372;2023-06-22T12:57:31;32.40;99.90
14995;DHT22;7593;49.006;8.372;2023-06-22T12:59:58;32.50;99.90
14995;DHT22;7593;49.006;8.372;2023-06-22T13:02:26;32.60;99.90
14995;DHT22;7593;49.006;8.372;2023-06-22T13:04:53;32.40;99.90
14995;DHT22;7593;49.006;8.372;2023-06-22T13:07:19;32.30;99.90
14995;DHT22;7593;49.006;8.372;2023-06-22T13:09:47;32.30;99.90
14995;DHT22;7593;49.006;8.372;2023-06-22T13:12:16;32.70;99.90
14995;DHT22;7593;49.006;8.372;2023-06-22T13:14:43;32.80;99.90
14995;DHT22;7593;49.006;8.372;2023-06-22T13:17:11;32.90;99.90
14995;DHT22;7593;49.006;8.372;2023-06-22T13:19:39;33.50;99.90
14995;DHT22;7593;49.006;8.372;2023-06-22T13:22:26;34.50;99.90
14995;DHT22;7593;49.006;8.372;2023-06-22T13:24:54;35.10;99.90
14995;DHT22;7593;49.006;8.372;2023-06-22T13:27:21;35.60;99.90
14995;DHT22;7593;49.006;8.372;2023-06-22T13:29:48;35.70;99.70
14995;DHT22;7593;49.006;8.372;2023-06-22T13:32:15;35.40;99.80
14995;DHT22;7593;49.006;8.372;2023-06-22T13:34:42;35.40;99.70
14995;DHT22;7593;49.006;8.372;2023-06-22T13:37:08;35.50;99.30
14995;DHT22;7593;49.006;8.372;2023-06-22T13:39:35;35.70;98.50
14995;DHT22;7593;49.006;8.372;2023-06-22T13:42:04;36.30;98.30
14995;DHT22;7593;49.006;8.372;2023-06-22T13:44:31;37.10;96.80
14995;DHT22;7593;49.006;8.372;2023-06-22T13:46:57;37.20;96.00
14995;DHT22;7593;49.006;8.372;2023-06-22T13:49:24;36.60;96.10
14995;DHT22;7593;49.006;8.372;2023-06-22T13:51:51;35.80;96.90
14995;DHT22;7593;49.006;8.372;2023-06-22T13:54:17;35.00;97.90
14995;DHT22;7593;49.006;8.372;2023-06-22T13:56:44;35.00;98.50
14995;DHT22;7593;49.006;8.372;2023-06-22T13:59:12;35.30;98.00
14995;DHT22;7593;49.006;8.372;2023-06-22T14:01:39;34.50;97.70
14995;DHT22;7593;49.006;8.372;2023-06-22T14:04:07;33.50;98.80
14995;DHT22;7593;49.006;8.372;2023-06-22T14:06:34;32.70;99.50
14995;DHT22;7593;49.006;8.372;2023-06-22T14:09:01;32.00;99.90
14995;DHT22;7593;49.006;8.372;2023-06-22T14:11:28;31.60;99.90
14995;DHT22;7593;49.006;8.372;2023-06-22T14:13:54;31.20;99.90
14995;DHT22;7593;49.006;8.372;2023-06-22T14:16:22;31.00;99.90
14995;DHT22;7593;49.006;8.372;2023-06-22T14:18:49;30.70;99.90
14995;DHT22;7593;49.006;8.372;2023-06-22T14:21:16;30.40;99.90
14995;DHT22;7593;49.006;8.372;2023-06-22T14:23:44;30.20;99.90
14995;DHT22;7593;49.006;8.372;2023-06-22T14:26:14;30.10;99.90
14995;DHT22;7593;49.006;8.372;2023-06-22T14:28:43;29.90;99.90
14995;DHT22;7593;49.006;8.372;2023-06-22T14:31:13;29.90;99.90
14995;DHT22;7593;49.006;8.372;2023-06-22T14:33:45;30.00;99.90
14995;DHT22;7593;49.006;8.372;2023-06-22T14:36:12;30.20;99.90
14995;DHT22;7593;49.006;8.372;2023-06-22T14:38:39;30.40;99.90
14995;DHT22;7593;49.006;8.372;2023-06-22T14:41:05;30.50;99.90
14995;DHT22;7593;49.006;8.372;2023-06-22T14:43:32;30.70;99.90
14995;DHT22;7593;49.006;8.372;2023-06-22T14:45:59;30.80;99.90
14995;DHT22;7593;49.006;8.372;2023-06-22T14:48:26;30.90;99.90
14995;DHT22;7593;49.006;8.372;2023-06-22T14:50:54;31.00;99.90
14995;DHT22;7593;49.006;8.372;2023-06-22T14:53:20;31.30;99.90
14995;DHT22;7593;49.006;8.372;2023-06-22T14:55:48;31.70;99.90
14995;DHT22;7593;49.006;8.372;2023-06-22T14:58:15;32.20;99.90
14995;DHT22;7593;49.006;8.372;2023-06-22T15:00:42;32.70;99.90
14995;DHT22;7593;49.006;8.372;2023-06-22T15:03:08;33.00;99.90
14995;DHT22;7593;49.006;8.372;2023-06-22T15:05:42;33.10;99.90
14995;DHT22;7593;49.006;8.372;2023-06-22T15:08:10;33.20;99.90
14995;DHT22;7593;49.006;8.372;2023-06-22T15:10:37;33.10;99.90
14995;DHT22;7593;49.006;8.372;2023-06-22T15:13:04;33.00;99.90
14995;DHT22;7593;49.006;8.372;2023-06-22T15:15:31;33.20;99.90
14995;DHT22;7593;49.006;8.372;2023-06-22T15:17:59;33.30;99.90
14995;DHT22;7593;49.006;8.372;2023-06-22T15:20:25;33.40;99.90
14995;DHT22;7593;49.006;8.372;2023-06-22T15:22:52;33.50;99.90
14995;DHT22;7593;49.006;8.372;2023-06-22T15:25:20;33.40;99.90
14995;DHT22;7593;49.006;8.372;2023-06-22T15:27:47;33.40;99.90
14995;DHT22;7593;49.006;8.372;2023-06-22T15:30:14;33.40;99.70
14995;DHT22;7593;49.006;8.372;2023-06-22T15:32:42;33.40;99.50
14995;DHT22;7593;49.006;8.372;2023-06-22T15:35:09;33.50;98.80
14995;DHT22;7593;49.006;8.372;2023-06-22T15:37:36;33.60;97.90
14995;DHT22;7593;49.006;8.372;2023-06-22T15:40:04;33.70;98.60
14995;DHT22;7593;49.006;8.372;2023-06-22T15:42:32;33.90;98.40
14995;DHT22;7593;49.006;8.372;2023-06-22T15:44:59;34.00;98.30
14995;DHT22;7593;49.006;8.372;2023-06-22T15:47:25;34.30;98.30